createdAt,value
2023-12-11T00:01:13.274Z,11.10
2023-12-11T00:03:43.396Z,11.10
2023-12-11T00:06:12.854Z,11.10
2023-12-11T00:08:41.292Z,11.10
2023-12-11T00:11:10.319Z,11.20
2023-12-11T00:13:38.706Z,11.20
2023-12-11T00:16:07.734Z,11.20
2023-12-11T00:18:36.831Z,11.20
2023-12-11T00:21:07.973Z,11.30
2023-12-11T00:23:36.395Z,11.30
2023-12-11T00:26:05.024Z,11.30
2023-12-11T00:28:33.405Z,11.30
2023-12-11T00:31:02.691Z,11.30
2023-12-11T00:33:31.315Z,11.30
2023-12-11T00:35:59.853Z,11.30
2023-12-11T00:38:29.647Z,11.30
2023-12-11T00:40:58.197Z,11.30
2023-12-11T00:43:26.617Z,11.30
2023-12-11T00:45:55.031Z,11.30
2023-12-11T00:48:23.458Z,11.30
2023-12-11T00:50:51.898Z,11.30
2023-12-11T00:53:20.318Z,11.30
2023-12-11T00:55:50.026Z,11.30
2023-12-11T00:58:18.527Z,11.30
2023-12-11T01:00:46.918Z,11.40
2023-12-11T01:03:15.380Z,11.40
2023-12-11T01:05:43.921Z,11.40
2023-12-11T01:08:12.274Z,11.40
2023-12-11T01:10:41.086Z,11.40
2023-12-11T01:13:10.880Z,11.40
2023-12-11T01:15:39.372Z,11.40
2023-12-11T01:18:07.987Z,11.40
2023-12-11T01:20:36.446Z,11.40
2023-12-11T01:23:04.921Z,11.40
2023-12-11T01:25:33.392Z,11.50
2023-12-11T01:28:01.851Z,11.50
2023-12-11T01:30:31.709Z,11.50
2023-12-11T01:33:00.257Z,11.50
2023-12-11T01:35:28.652Z,11.50
2023-12-11T01:37:57.072Z,11.50
2023-12-11T01:40:25.457Z,11.50
2023-12-11T01:43:04.268Z,11.50
2023-12-11T01:45:41.559Z,11.50
2023-12-11T01:48:11.689Z,11.50
2023-12-11T01:50:41.861Z,11.50
2023-12-11T01:53:10.663Z,11.60
2023-12-11T01:55:39.314Z,11.60
2023-12-11T01:58:08.442Z,11.60
2023-12-11T02:00:37.537Z,11.60
2023-12-11T02:03:07.526Z,11.60
2023-12-11T02:05:36.058Z,11.60
2023-12-11T02:08:04.801Z,11.60
2023-12-11T02:10:33.222Z,11.50
2023-12-11T02:13:01.667Z,11.50
2023-12-11T02:15:42.801Z,11.50
2023-12-11T02:18:13.846Z,11.50
2023-12-11T02:20:43.646Z,11.50
2023-12-11T02:23:17.454Z,11.50
2023-12-11T02:25:50.791Z,11.50
2023-12-11T02:28:20.599Z,11.50
2023-12-11T02:30:53.036Z,11.50
2023-12-11T02:33:21.565Z,11.50
2023-12-11T02:35:49.922Z,11.50
2023-12-11T02:38:18.330Z,11.40
2023-12-11T02:40:46.798Z,11.40
2023-12-11T02:43:15.413Z,11.40
2023-12-11T02:45:45.803Z,11.40
2023-12-11T02:48:14.630Z,11.40
2023-12-11T02:50:43.167Z,11.40
2023-12-11T02:53:11.536Z,11.40
2023-12-11T02:55:39.905Z,11.40
2023-12-11T02:58:08.653Z,11.40
2023-12-11T03:00:37.908Z,11.40
2023-12-11T03:03:10.062Z,11.40
2023-12-11T03:05:38.641Z,11.40
2023-12-11T03:08:07.800Z,11.40
2023-12-11T03:10:36.347Z,11.30
2023-12-11T03:13:04.890Z,11.40
2023-12-11T03:15:33.847Z,11.30
2023-12-11T03:18:05.299Z,11.40
2023-12-11T03:20:35.194Z,11.40
2023-12-11T03:23:03.620Z,11.40
2023-12-11T03:25:32.057Z,11.40
2023-12-11T03:28:00.467Z,11.40
2023-12-11T03:30:28.829Z,11.40
2023-12-11T03:32:57.198Z,11.40
2023-12-11T03:35:25.763Z,11.40
2023-12-11T03:37:55.559Z,11.40
2023-12-11T03:40:24.217Z,11.40
2023-12-11T03:42:52.761Z,11.40
2023-12-11T03:45:21.313Z,11.40
2023-12-11T03:47:49.713Z,11.40
2023-12-11T03:50:18.154Z,11.40
2023-12-11T03:52:46.593Z,11.40
2023-12-11T03:55:16.620Z,11.40
2023-12-11T03:57:45.056Z,11.40
2023-12-11T04:00:15.385Z,11.30
2023-12-11T04:02:43.878Z,11.40
2023-12-11T04:05:12.277Z,11.30
2023-12-11T04:07:40.657Z,11.30
2023-12-11T04:10:10.047Z,11.30
2023-12-11T04:12:40.957Z,11.30
2023-12-11T04:15:10.301Z,11.40
2023-12-11T04:17:38.801Z,11.40
2023-12-11T04:20:08.094Z,11.40
2023-12-11T04:22:36.549Z,11.40
2023-12-11T04:25:05.290Z,11.40
2023-12-11T04:27:33.676Z,11.40
2023-12-11T04:30:03.495Z,11.40
2023-12-11T04:32:33.101Z,11.40
2023-12-11T04:35:02.158Z,11.30
2023-12-11T04:37:30.719Z,11.30
2023-12-11T04:39:59.290Z,11.30
2023-12-11T04:42:27.782Z,11.30
2023-12-11T04:44:56.268Z,11.30
2023-12-11T04:47:26.179Z,11.30
2023-12-11T04:49:54.677Z,11.30
2023-12-11T04:52:23.133Z,11.30
2023-12-11T04:54:51.703Z,11.30
2023-12-11T04:57:20.418Z,11.40
2023-12-11T04:59:48.814Z,11.30
2023-12-11T05:02:17.176Z,11.30
2023-12-11T05:04:46.969Z,11.30
2023-12-11T05:07:15.425Z,11.30
2023-12-11T05:09:43.863Z,11.30
2023-12-11T05:12:12.274Z,11.30
2023-12-11T05:14:40.677Z,11.30
2023-12-11T05:17:09.119Z,11.30
2023-12-11T05:19:37.916Z,11.30
2023-12-11T05:22:07.872Z,11.30
2023-12-11T05:24:36.370Z,11.20
2023-12-11T05:27:04.990Z,11.20
2023-12-11T05:29:33.411Z,11.20
2023-12-11T05:32:01.815Z,11.20
2023-12-11T05:34:30.226Z,11.20
2023-12-11T05:36:58.669Z,11.20
2023-12-11T05:39:28.429Z,11.10
2023-12-11T05:41:57.144Z,11.10
2023-12-11T05:44:25.515Z,11.10
2023-12-11T05:46:53.893Z,11.10
2023-12-11T05:49:22.485Z,11.10
2023-12-11T05:51:51.193Z,11.10
2023-12-11T05:54:19.597Z,11.10
2023-12-11T05:56:49.388Z,11.00
2023-12-11T05:59:18.548Z,11.00
2023-12-11T06:01:48.538Z,11.00
2023-12-11T06:04:16.982Z,11.00
2023-12-11T06:06:45.484Z,11.00
2023-12-11T06:09:14.865Z,11.00
2023-12-11T06:11:43.403Z,11.00
2023-12-11T06:14:13.190Z,10.90
2023-12-11T06:16:42.374Z,10.90
2023-12-11T06:19:10.820Z,10.90
2023-12-11T06:21:39.915Z,10.90
2023-12-11T06:24:09.249Z,10.90
2023-12-11T06:26:37.862Z,10.90
2023-12-11T06:29:06.287Z,10.90
2023-12-11T06:31:36.153Z,10.90
2023-12-11T06:34:04.723Z,10.90
2023-12-11T06:36:33.179Z,10.80
2023-12-11T06:39:02.763Z,10.80
2023-12-11T06:41:31.227Z,10.80
2023-12-11T06:43:59.767Z,10.80
2023-12-11T06:46:45.271Z,10.80
2023-12-11T06:49:25.136Z,10.80
2023-12-11T06:52:00.600Z,10.80
2023-12-11T06:54:29.651Z,10.80
2023-12-11T06:57:03.110Z,10.70
2023-12-11T06:59:46.761Z,10.70
2023-12-11T07:02:19.990Z,10.70
2023-12-11T07:05:33.268Z,10.70
2023-12-11T07:08:08.806Z,10.70
2023-12-11T07:10:46.009Z,10.70
2023-12-11T07:13:17.653Z,10.70
2023-12-11T07:15:50.785Z,10.60
2023-12-11T07:18:22.839Z,10.60
2023-12-11T07:21:01.519Z,10.60
2023-12-11T07:23:34.742Z,10.60
2023-12-11T07:26:06.338Z,10.60
2023-12-11T07:28:34.875Z,10.60
2023-12-11T07:31:07.634Z,10.50
2023-12-11T07:33:38.963Z,10.50
2023-12-11T07:36:08.401Z,10.50
2023-12-11T07:38:38.203Z,10.50
2023-12-11T07:41:08.115Z,10.50
2023-12-11T07:43:36.963Z,10.50
2023-12-11T07:46:07.740Z,10.50
2023-12-11T07:48:37.717Z,10.40
2023-12-11T07:51:06.718Z,10.40
2023-12-11T07:53:45.021Z,10.40
2023-12-11T07:56:26.046Z,10.40
2023-12-11T07:59:15.803Z,10.40
2023-12-11T08:01:44.502Z,10.40
2023-12-11T08:04:15.318Z,10.40
2023-12-11T08:06:44.262Z,10.40
2023-12-11T08:09:15.164Z,10.40
2023-12-11T08:11:46.879Z,10.40
2023-12-11T08:14:15.507Z,10.40
2023-12-11T08:16:43.977Z,10.40
2023-12-11T08:19:13.774Z,10.40
2023-12-11T08:21:43.631Z,10.40
2023-12-11T08:24:13.398Z,10.40
2023-12-11T08:26:50.295Z,10.50
2023-12-11T08:29:20.310Z,10.50
2023-12-11T08:31:48.750Z,10.50
2023-12-11T08:34:17.475Z,10.50
2023-12-11T08:36:51.425Z,10.50
2023-12-11T08:39:20.019Z,10.60
2023-12-11T08:41:49.248Z,10.60
2023-12-11T08:44:17.810Z,10.60
2023-12-11T08:46:46.262Z,10.70
2023-12-11T08:49:14.877Z,10.70
2023-12-11T08:51:43.510Z,10.70
2023-12-11T08:54:13.614Z,10.80
2023-12-11T08:56:42.077Z,10.80
2023-12-11T08:59:10.734Z,10.90
2023-12-11T09:01:39.373Z,10.90
2023-12-11T09:04:10.451Z,11.00
2023-12-11T09:06:40.584Z,11.00
2023-12-11T09:09:12.121Z,11.10
2023-12-11T09:11:42.135Z,11.10
2023-12-11T09:14:19.880Z,11.10
2023-12-11T09:16:52.065Z,11.20
2023-12-11T09:19:31.774Z,11.20
2023-12-11T09:22:08.383Z,11.30
2023-12-11T09:24:36.864Z,11.30
2023-12-11T09:27:07.122Z,11.30
2023-12-11T09:29:36.399Z,11.40
2023-12-11T09:32:05.061Z,11.40
2023-12-11T09:34:35.211Z,11.50
2023-12-11T09:37:04.228Z,11.50
2023-12-11T09:39:33.365Z,11.60
2023-12-11T09:42:02.875Z,11.60
2023-12-11T09:44:33.674Z,11.70
2023-12-11T09:47:08.940Z,11.70
2023-12-11T09:49:37.764Z,11.70
2023-12-11T09:52:08.532Z,11.80
2023-12-11T09:54:38.344Z,11.80
2023-12-11T09:57:08.834Z,11.90
2023-12-11T09:59:42.145Z,11.90
2023-12-11T10:02:17.929Z,12.00
2023-12-11T10:05:05.348Z,12.00
2023-12-11T10:07:35.021Z,12.10
2023-12-11T10:10:22.918Z,12.10
2023-12-11T10:12:52.088Z,12.10
2023-12-11T10:15:30.411Z,12.10
2023-12-11T10:18:03.846Z,12.20
2023-12-11T10:20:33.225Z,12.20
2023-12-11T10:23:14.992Z,12.30
2023-12-11T10:25:45.166Z,12.30
2023-12-11T10:28:15.031Z,12.40
2023-12-11T10:30:56.138Z,12.40
2023-12-11T10:33:26.821Z,12.40
2023-12-11T10:36:09.100Z,12.50
2023-12-11T10:38:37.590Z,12.50
2023-12-11T10:41:06.316Z,12.50
2023-12-11T10:43:55.376Z,12.60
2023-12-11T10:46:31.693Z,12.60
2023-12-11T10:49:02.227Z,12.60
2023-12-11T10:51:33.779Z,12.70
2023-12-11T10:54:04.041Z,12.70
2023-12-11T10:56:36.215Z,12.80
2023-12-11T10:59:06.473Z,12.80
2023-12-11T11:01:38.478Z,12.90
2023-12-11T11:04:15.829Z,12.80
2023-12-11T11:06:53.832Z,12.80
2023-12-11T11:09:32.365Z,12.90
2023-12-11T11:12:08.330Z,12.90
2023-12-11T11:14:52.633Z,12.90
2023-12-11T11:17:23.252Z,13.00
2023-12-11T11:20:14.053Z,13.00
2023-12-11T11:22:44.902Z,13.00
2023-12-11T11:25:35.207Z,13.10
2023-12-11T11:28:17.043Z,13.10
2023-12-11T11:30:53.816Z,13.10
2023-12-11T11:33:53.552Z,13.20
2023-12-11T11:36:49.568Z,13.20
2023-12-11T11:40:04.791Z,13.20
2023-12-11T11:42:47.717Z,13.20
2023-12-11T11:45:18.882Z,13.30
2023-12-11T11:47:57.676Z,13.30
2023-12-11T11:50:37.572Z,13.30
2023-12-11T11:53:28.869Z,13.30
2023-12-11T11:56:03.511Z,13.40
2023-12-11T11:58:41.702Z,13.40
2023-12-11T12:01:17.833Z,13.40
2023-12-11T12:03:50.260Z,13.50
2023-12-11T12:06:27.756Z,13.50
2023-12-11T12:08:56.773Z,13.60
2023-12-11T12:11:27.583Z,13.60
2023-12-11T12:13:56.826Z,13.60
2023-12-11T12:16:32.258Z,13.70
2023-12-11T12:19:02.002Z,13.70
2023-12-11T12:21:49.315Z,13.70
2023-12-11T12:24:18.014Z,13.70
2023-12-11T12:26:49.878Z,13.70
2023-12-11T12:29:18.801Z,13.70
2023-12-11T12:31:52.459Z,13.70
2023-12-11T12:34:21.455Z,13.70
2023-12-11T12:36:51.992Z,13.70
2023-12-11T12:39:28.734Z,13.70
2023-12-11T12:42:17.691Z,13.70
2023-12-11T12:44:59.253Z,13.70
2023-12-11T12:47:38.356Z,13.70
2023-12-11T12:50:24.071Z,13.70
2023-12-11T12:53:16.871Z,13.80
2023-12-11T12:55:51.100Z,13.80
2023-12-11T12:58:31.012Z,13.80
2023-12-11T13:01:00.998Z,13.80
2023-12-11T13:03:52.307Z,13.80
2023-12-11T13:06:30.275Z,13.80
2023-12-11T13:09:00.390Z,13.80
2023-12-11T13:11:42.975Z,13.80
2023-12-11T13:14:13.168Z,13.80
2023-12-11T13:16:45.509Z,13.90
2023-12-11T13:19:17.219Z,13.90
2023-12-11T13:21:46.133Z,13.90
2023-12-11T13:24:17.863Z,13.90
2023-12-11T13:27:12.952Z,13.90
2023-12-11T13:29:41.567Z,13.90
2023-12-11T13:32:10.036Z,13.90
2023-12-11T13:34:44.754Z,13.80
2023-12-11T13:37:13.518Z,13.90
2023-12-11T13:39:44.083Z,13.90
2023-12-11T13:42:12.797Z,13.90
2023-12-11T13:44:41.367Z,14.00
2023-12-11T13:47:11.911Z,14.00
2023-12-11T13:49:41.226Z,14.00
2023-12-11T13:52:10.461Z,14.00
2023-12-11T13:54:39.032Z,14.00
2023-12-11T13:57:09.108Z,14.00
2023-12-11T13:59:37.562Z,14.00
2023-12-11T14:02:06.278Z,14.00
2023-12-11T14:04:34.952Z,14.10
2023-12-11T14:07:03.656Z,14.10
2023-12-11T14:09:34.301Z,14.10
2023-12-11T14:12:13.115Z,14.10
2023-12-11T14:14:43.129Z,14.10
2023-12-11T14:17:12.250Z,14.10
2023-12-11T14:19:47.372Z,14.10
2023-12-11T14:22:16.497Z,14.20
2023-12-11T14:24:48.856Z,14.20
2023-12-11T14:27:17.527Z,14.20
2023-12-11T14:29:47.463Z,14.20
2023-12-11T14:32:16.077Z,14.20
2023-12-11T14:34:44.815Z,14.20
2023-12-11T14:37:14.828Z,14.20
2023-12-11T14:39:43.882Z,14.20
2023-12-11T14:42:13.340Z,14.20
2023-12-11T14:44:42.756Z,14.20
2023-12-11T14:47:13.469Z,14.20
2023-12-11T14:49:42.667Z,14.20
2023-12-11T14:52:13.354Z,14.20
2023-12-11T14:54:42.223Z,14.20
2023-12-11T15:02:05.705Z,14.20
2023-12-11T15:07:18.204Z,14.10
2023-12-11T15:09:51.107Z,14.10
2023-12-11T15:12:34.015Z,14.10
2023-12-11T15:15:03.747Z,14.10
2023-12-11T15:17:40.315Z,14.10
2023-12-11T15:20:12.667Z,14.00
2023-12-11T15:22:42.606Z,14.00
2023-12-11T15:25:12.184Z,13.90
2023-12-11T15:27:41.142Z,14.00
2023-12-11T15:30:11.298Z,14.00
2023-12-11T15:32:40.165Z,13.90
2023-12-11T15:35:11.440Z,14.00
2023-12-11T15:37:40.247Z,14.00
2023-12-11T15:40:09.970Z,14.00
2023-12-11T15:42:39.456Z,13.90
2023-12-11T15:45:08.973Z,13.90
2023-12-11T15:47:59.971Z,13.90
2023-12-11T15:50:31.786Z,13.90
2023-12-11T15:53:05.793Z,13.90
2023-12-11T15:55:40.677Z,13.90
2023-12-11T15:58:12.870Z,13.90
2023-12-11T16:00:42.784Z,13.80
2023-12-11T16:03:16.177Z,13.80
2023-12-11T16:05:49.296Z,13.80
2023-12-11T16:08:18.344Z,13.80
2023-12-11T16:10:48.361Z,13.80
2023-12-11T16:13:21.936Z,13.80
2023-12-11T16:16:00.355Z,13.70
2023-12-11T16:18:36.897Z,13.70
2023-12-11T16:24:06.578Z,13.70
2023-12-11T16:26:35.116Z,13.60
2023-12-11T16:29:03.588Z,13.60
2023-12-11T16:31:32.237Z,13.60
2023-12-11T16:34:02.741Z,13.50
2023-12-11T16:36:35.283Z,13.50
2023-12-11T16:39:18.195Z,13.50
2023-12-11T16:41:49.566Z,13.50
2023-12-11T16:44:21.308Z,13.40
2023-12-11T16:46:55.273Z,13.40
2023-12-11T16:52:33.634Z,13.40
2023-12-11T16:55:04.136Z,13.40
2023-12-11T16:57:32.770Z,13.30
2023-12-11T17:00:01.257Z,13.30
2023-12-11T17:02:30.096Z,13.30
2023-12-11T17:04:58.784Z,13.30
2023-12-11T17:07:28.810Z,13.30
2023-12-11T17:09:59.079Z,13.30
2023-12-11T17:12:29.297Z,13.30
2023-12-11T17:14:59.841Z,13.20
2023-12-11T17:17:33.517Z,13.20
2023-12-11T17:20:19.076Z,13.20
2023-12-11T17:22:49.935Z,13.20
2023-12-11T17:25:24.659Z,13.20
2023-12-11T17:28:01.535Z,13.20
2023-12-11T17:30:34.725Z,13.10
2023-12-11T17:33:15.786Z,13.10
2023-12-11T17:35:48.191Z,13.10
2023-12-11T17:41:03.390Z,13.10
2023-12-11T17:43:39.170Z,13.00
2023-12-11T17:46:08.827Z,13.00
2023-12-11T17:48:50.005Z,13.00
2023-12-11T17:51:18.644Z,13.00
2023-12-11T17:53:50.654Z,12.90
2023-12-11T17:56:20.675Z,12.90
2023-12-11T17:58:49.772Z,12.90
2023-12-11T18:01:18.422Z,12.80
2023-12-11T18:03:48.409Z,12.80
2023-12-11T18:06:18.147Z,12.80
2023-12-11T18:08:47.192Z,12.80
2023-12-11T18:12:06.291Z,12.80
2023-12-11T18:14:36.117Z,12.80
2023-12-11T18:17:04.620Z,12.80
2023-12-11T18:19:36.965Z,12.80
2023-12-11T18:22:07.911Z,12.80
2023-12-11T18:24:36.707Z,12.80
2023-12-11T18:27:05.537Z,12.80
2023-12-11T18:29:35.487Z,12.80
2023-12-11T18:32:04.057Z,12.80
2023-12-11T18:34:42.912Z,12.70
2023-12-11T18:37:16.458Z,12.80
2023-12-11T18:39:45.871Z,12.80
2023-12-11T18:42:14.339Z,12.80
2023-12-11T18:44:45.758Z,12.80
2023-12-11T18:49:59.457Z,12.80
2023-12-11T18:52:28.120Z,12.80
2023-12-11T18:54:56.643Z,12.80
2023-12-11T18:57:25.746Z,12.80
2023-12-11T18:59:56.020Z,12.80
2023-12-11T19:02:24.700Z,12.80
2023-12-11T19:04:53.683Z,12.80
2023-12-11T19:07:23.971Z,12.80
2023-12-11T19:09:52.491Z,12.80
2023-12-11T19:12:21.033Z,12.80
2023-12-11T19:14:49.562Z,12.80
2023-12-11T19:17:19.469Z,12.80
2023-12-11T19:19:48.993Z,12.80
2023-12-11T19:22:18.757Z,12.80
2023-12-11T19:24:47.265Z,12.80
2023-12-11T19:27:16.169Z,12.80
2023-12-11T19:29:49.262Z,12.80
2023-12-11T19:32:20.647Z,12.80
2023-12-11T19:34:49.360Z,12.80
2023-12-11T19:37:17.903Z,12.80
2023-12-11T19:39:47.350Z,12.80
2023-12-11T19:42:15.897Z,12.80
2023-12-11T19:44:44.399Z,12.80
2023-12-11T19:47:14.932Z,12.90
2023-12-11T19:49:45.551Z,12.80
2023-12-11T19:52:15.896Z,12.90
2023-12-11T19:54:45.812Z,12.90
2023-12-11T19:57:14.840Z,12.90
2023-12-11T19:59:45.490Z,12.80
2023-12-11T20:02:14.360Z,12.90
2023-12-11T20:04:47.201Z,12.80
2023-12-11T20:07:15.742Z,12.80
2023-12-11T20:09:44.367Z,12.90
2023-12-11T20:12:14.732Z,12.90
2023-12-11T20:14:44.053Z,12.90
2023-12-11T20:17:15.273Z,12.90
2023-12-11T20:19:45.178Z,12.90
2023-12-11T20:22:13.977Z,12.90
2023-12-11T20:24:42.468Z,12.90
2023-12-11T20:27:11.430Z,12.90
2023-12-11T20:29:39.891Z,12.90
2023-12-11T20:32:08.466Z,12.90
2023-12-11T20:34:37.124Z,12.90
2023-12-11T20:37:10.005Z,12.90
2023-12-11T20:39:38.695Z,12.90
2023-12-11T20:42:07.576Z,12.90
2023-12-11T20:44:36.084Z,12.90
2023-12-11T20:47:04.435Z,12.90
2023-12-11T20:49:35.912Z,12.90
2023-12-11T20:52:04.477Z,12.90
2023-12-11T20:54:34.318Z,12.90
2023-12-11T20:57:03.941Z,12.90
2023-12-11T20:59:32.857Z,12.90
2023-12-11T21:02:02.567Z,12.90
2023-12-11T21:04:31.130Z,12.90
2023-12-11T21:06:59.656Z,12.90
2023-12-11T21:09:28.203Z,12.90
2023-12-11T21:11:58.016Z,12.90
2023-12-11T21:14:26.427Z,12.90
2023-12-11T21:16:54.909Z,12.90
2023-12-11T21:19:24.489Z,12.90
2023-12-11T21:21:53.180Z,12.90
2023-12-11T21:24:22.353Z,12.90
2023-12-11T21:26:51.073Z,12.90
2023-12-11T21:29:20.882Z,12.90
2023-12-11T21:31:49.311Z,12.90
2023-12-11T21:34:19.045Z,12.90
2023-12-11T21:36:47.748Z,12.90
2023-12-11T21:39:17.991Z,12.90
2023-12-11T21:41:46.510Z,12.90
2023-12-11T21:44:14.904Z,12.90
2023-12-11T21:46:45.538Z,12.90
2023-12-11T21:49:16.123Z,12.90
2023-12-11T21:51:44.541Z,12.90
2023-12-11T21:54:12.873Z,12.90
2023-12-11T21:56:42.070Z,12.90
2023-12-11T21:59:10.503Z,12.90
2023-12-11T22:01:38.987Z,12.90
2023-12-11T22:04:12.022Z,12.80
2023-12-11T22:06:40.502Z,12.80
2023-12-11T22:09:08.814Z,12.80
2023-12-11T22:11:37.169Z,12.80
2023-12-11T22:14:05.511Z,12.80
2023-12-11T22:16:35.727Z,12.80
2023-12-11T22:19:05.588Z,12.80
2023-12-11T22:21:35.391Z,12.80
2023-12-11T22:24:04.250Z,12.70
2023-12-11T22:26:40.166Z,12.70
2023-12-11T22:29:09.010Z,12.70
2023-12-11T22:31:41.403Z,12.70
2023-12-11T22:34:09.949Z,12.70
2023-12-11T22:36:39.630Z,12.70
2023-12-11T22:39:08.813Z,12.60
2023-12-11T22:41:37.198Z,12.60
2023-12-11T22:44:06.310Z,12.60
2023-12-11T22:46:34.735Z,12.60
2023-12-11T22:49:03.207Z,12.60
2023-12-11T22:51:31.637Z,12.50
2023-12-11T22:54:01.309Z,12.50
2023-12-11T22:56:29.604Z,12.50
2023-12-11T22:58:58.078Z,12.50
2023-12-11T23:01:26.493Z,12.50
2023-12-11T23:03:54.991Z,12.50
2023-12-11T23:06:23.343Z,12.50
2023-12-11T23:08:51.668Z,12.40
2023-12-11T23:11:21.374Z,12.40
2023-12-11T23:13:49.596Z,12.40
2023-12-11T23:16:18.356Z,12.40
2023-12-11T23:18:46.664Z,12.40
2023-12-11T23:21:19.415Z,12.40
2023-12-11T23:23:47.729Z,12.40
2023-12-11T23:26:16.200Z,12.40
2023-12-11T23:28:46.061Z,12.30
2023-12-11T23:31:14.413Z,12.30
2023-12-11T23:33:42.861Z,12.30
2023-12-11T23:36:12.056Z,12.30
2023-12-11T23:38:40.510Z,12.30
2023-12-11T23:41:08.785Z,12.30
2023-12-11T23:43:37.128Z,12.30
2023-12-11T23:46:07.063Z,12.30
2023-12-11T23:48:35.551Z,12.30
2023-12-11T23:51:04.038Z,12.30
2023-12-11T23:53:32.338Z,12.30
2023-12-11T23:56:00.616Z,12.30
2023-12-11T23:58:28.975Z,12.30
